sensor_id;sensor_type;location;lat;lon;timestamp;temperature;humidity
16229;DHT22;8222;51.462;12.630;2023-07-20T00:01:58;21.50;99.90
16229;DHT22;8222;51.462;12.630;2023-07-20T00:04:24;21.60;99.90
16229;DHT22;8222;51.462;12.630;2023-07-20T00:06:49;21.50;99.90
16229;DHT22;8222;51.462;12.630;2023-07-20T00:09:15;21.40;99.90
16229;DHT22;8222;51.462;12.630;2023-07-20T00:11:48;21.30;99.90
16229;DHT22;8222;51.462;12.630;2023-07-20T00:14:17;21.40;99.90
16229;DHT22;8222;51.462;12.630;2023-07-20T00:16:46;21.30;99.90
16229;DHT22;8222;51.462;12.630;2023-07-20T00:19:24;21.40;99.90
16229;DHT22;8222;51.462;12.630;2023-07-20T00:21:52;21.20;99.90
16229;DHT22;8222;51.462;12.630;2023-07-20T00:24:18;21.00;99.90
16229;DHT22;8222;51.462;12.630;2023-07-20T00:26:47;20.80;99.90
16229;DHT22;8222;51.462;12.630;2023-07-20T00:29:12;20.70;99.90
16229;DHT22;8222;51.462;12.630;2023-07-20T00:31:40;20.70;99.90
16229;DHT22;8222;51.462;12.630;2023-07-20T00:34:09;20.50;99.90
16229;DHT22;8222;51.462;12.630;2023-07-20T00:36:34;20.70;99.90
16229;DHT22;8222;51.462;12.630;2023-07-20T00:39:03;20.70;99.90
16229;DHT22;8222;51.462;12.630;2023-07-20T00:41:28;20.70;99.90
16229;DHT22;8222;51.462;12.630;2023-07-20T00:43:55;20.60;99.90
16229;DHT22;8222;51.462;12.630;2023-07-20T00:46:25;20.70;99.90
16229;DHT22;8222;51.462;12.630;2023-07-20T00:48:53;20.70;99.90
16229;DHT22;8222;51.462;12.630;2023-07-20T00:51:21;20.80;99.90
16229;DHT22;8222;51.462;12.630;2023-07-20T00:53:47;20.80;99.90
16229;DHT22;8222;51.462;12.630;2023-07-20T00:56:15;21.00;99.90
16229;DHT22;8222;51.462;12.630;2023-07-20T00:58:41;20.90;99.90
16229;DHT22;8222;51.462;12.630;2023-07-20T01:03:44;20.90;99.90
16229;DHT22;8222;51.462;12.630;2023-07-20T01:06:29;20.60;99.90
16229;DHT22;8222;51.462;12.630;2023-07-20T01:09:23;20.90;99.90
16229;DHT22;8222;51.462;12.630;2023-07-20T01:14:29;20.30;99.90
16229;DHT22;8222;51.462;12.630;2023-07-20T01:16:57;20.20;99.90
16229;DHT22;8222;51.462;12.630;2023-07-20T01:19:25;20.20;99.90
16229;DHT22;8222;51.462;12.630;2023-07-20T01:22:03;20.20;99.90
16229;DHT22;8222;51.462;12.630;2023-07-20T01:27:41;20.10;99.90
16229;DHT22;8222;51.462;12.630;2023-07-20T01:33:17;20.10;99.90
16229;DHT22;8222;51.462;12.630;2023-07-20T01:35:47;20.10;99.90
16229;DHT22;8222;51.462;12.630;2023-07-20T01:38:19;19.90;99.90
16229;DHT22;8222;51.462;12.630;2023-07-20T01:40:45;19.80;99.90
16229;DHT22;8222;51.462;12.630;2023-07-20T01:43:12;20.00;99.90
16229;DHT22;8222;51.462;12.630;2023-07-20T01:45:38;19.90;99.90
16229;DHT22;8222;51.462;12.630;2023-07-20T01:48:04;19.70;99.90
16229;DHT22;8222;51.462;12.630;2023-07-20T01:50:29;19.60;99.90
16229;DHT22;8222;51.462;12.630;2023-07-20T01:52:58;19.50;99.90
16229;DHT22;8222;51.462;12.630;2023-07-20T01:55:26;19.50;99.90
16229;DHT22;8222;51.462;12.630;2023-07-20T01:57:52;19.50;99.90
16229;DHT22;8222;51.462;12.630;2023-07-20T02:00:18;19.30;99.90
16229;DHT22;8222;51.462;12.630;2023-07-20T02:02:46;19.30;99.90
16229;DHT22;8222;51.462;12.630;2023-07-20T02:05:12;19.30;99.90
16229;DHT22;8222;51.462;12.630;2023-07-20T02:07:40;19.20;99.90
16229;DHT22;8222;51.462;12.630;2023-07-20T02:10:11;19.20;99.90
16229;DHT22;8222;51.462;12.630;2023-07-20T02:12:36;19.20;99.90
16229;DHT22;8222;51.462;12.630;2023-07-20T02:15:05;19.30;99.90
16229;DHT22;8222;51.462;12.630;2023-07-20T02:17:33;19.20;99.90
16229;DHT22;8222;51.462;12.630;2023-07-20T02:20:01;19.30;99.90
16229;DHT22;8222;51.462;12.630;2023-07-20T02:22:26;19.30;99.90
16229;DHT22;8222;51.462;12.630;2023-07-20T02:24:55;19.30;99.90
16229;DHT22;8222;51.462;12.630;2023-07-20T02:27:20;19.30;99.90
16229;DHT22;8222;51.462;12.630;2023-07-20T02:29:46;19.30;99.90
16229;DHT22;8222;51.462;12.630;2023-07-20T02:32:18;19.30;99.90
16229;DHT22;8222;51.462;12.630;2023-07-20T02:34:43;19.40;99.90
16229;DHT22;8222;51.462;12.630;2023-07-20T02:37:09;19.40;99.90
16229;DHT22;8222;51.462;12.630;2023-07-20T02:39:38;19.50;99.90
16229;DHT22;8222;51.462;12.630;2023-07-20T02:42:04;19.50;99.90
16229;DHT22;8222;51.462;12.630;2023-07-20T02:44:32;19.50;99.90
16229;DHT22;8222;51.462;12.630;2023-07-20T02:46:58;19.30;99.90
16229;DHT22;8222;51.462;12.630;2023-07-20T02:49:24;19.20;99.90
16229;DHT22;8222;51.462;12.630;2023-07-20T02:51:49;19.30;99.90
16229;DHT22;8222;51.462;12.630;2023-07-20T02:54:15;19.50;99.90
16229;DHT22;8222;51.462;12.630;2023-07-20T02:56:43;19.50;99.90
16229;DHT22;8222;51.462;12.630;2023-07-20T02:59:09;19.40;99.90
16229;DHT22;8222;51.462;12.630;2023-07-20T03:01:37;19.50;99.90
16229;DHT22;8222;51.462;12.630;2023-07-20T03:04:05;19.60;99.90
16229;DHT22;8222;51.462;12.630;2023-07-20T03:06:33;19.50;99.90
16229;DHT22;8222;51.462;12.630;2023-07-20T03:09:01;19.50;99.90
16229;DHT22;8222;51.462;12.630;2023-07-20T03:11:32;19.60;99.90
16229;DHT22;8222;51.462;12.630;2023-07-20T03:14:00;19.50;99.90
16229;DHT22;8222;51.462;12.630;2023-07-20T03:16:30;19.70;99.90
16229;DHT22;8222;51.462;12.630;2023-07-20T03:18:59;19.60;99.90
16229;DHT22;8222;51.462;12.630;2023-07-20T03:21:26;19.50;99.90
16229;DHT22;8222;51.462;12.630;2023-07-20T03:23:52;19.50;99.90
16229;DHT22;8222;51.462;12.630;2023-07-20T03:26:18;19.60;99.90
16229;DHT22;8222;51.462;12.630;2023-07-20T03:28:43;19.50;99.90
16229;DHT22;8222;51.462;12.630;2023-07-20T03:31:09;19.30;99.90
16229;DHT22;8222;51.462;12.630;2023-07-20T03:33:35;19.30;99.90
16229;DHT22;8222;51.462;12.630;2023-07-20T03:36:03;19.30;99.90
16229;DHT22;8222;51.462;12.630;2023-07-20T03:38:31;19.30;99.90
16229;DHT22;8222;51.462;12.630;2023-07-20T03:41:00;19.40;99.90
16229;DHT22;8222;51.462;12.630;2023-07-20T03:43:28;19.30;99.90
16229;DHT22;8222;51.462;12.630;2023-07-20T03:45:54;19.30;99.90
16229;DHT22;8222;51.462;12.630;2023-07-20T03:48:22;19.50;99.90
16229;DHT22;8222;51.462;12.630;2023-07-20T03:50:49;19.50;99.90
16229;DHT22;8222;51.462;12.630;2023-07-20T03:53:17;19.30;99.90
16229;DHT22;8222;51.462;12.630;2023-07-20T03:55:47;19.40;99.90
16229;DHT22;8222;51.462;12.630;2023-07-20T03:58:15;19.40;99.90
16229;DHT22;8222;51.462;12.630;2023-07-20T04:00:49;19.40;99.90
16229;DHT22;8222;51.462;12.630;2023-07-20T04:03:16;19.30;99.90
16229;DHT22;8222;51.462;12.630;2023-07-20T04:05:44;19.30;99.90
16229;DHT22;8222;51.462;12.630;2023-07-20T04:08:10;19.30;99.90
16229;DHT22;8222;51.462;12.630;2023-07-20T04:10:37;19.20;99.90
16229;DHT22;8222;51.462;12.630;2023-07-20T04:13:05;19.10;99.90
16229;DHT22;8222;51.462;12.630;2023-07-20T04:15:33;19.30;99.90
16229;DHT22;8222;51.462;12.630;2023-07-20T04:17:59;19.30;99.90
16229;DHT22;8222;51.462;12.630;2023-07-20T04:20:26;19.40;99.90
16229;DHT22;8222;51.462;12.630;2023-07-20T04:22:52;19.40;99.90
16229;DHT22;8222;51.462;12.630;2023-07-20T04:25:18;19.40;99.90
16229;DHT22;8222;51.462;12.630;2023-07-20T04:27:46;19.50;99.90
16229;DHT22;8222;51.462;12.630;2023-07-20T04:30:17;19.40;99.90
16229;DHT22;8222;51.462;12.630;2023-07-20T04:32:48;19.50;99.90
16229;DHT22;8222;51.462;12.630;2023-07-20T04:35:50;19.60;99.90
16229;DHT22;8222;51.462;12.630;2023-07-20T04:38:19;19.80;99.90
16229;DHT22;8222;51.462;12.630;2023-07-20T04:40:48;19.80;99.90
16229;DHT22;8222;51.462;12.630;2023-07-20T04:43:15;19.70;99.90
16229;DHT22;8222;51.462;12.630;2023-07-20T04:45:43;19.70;99.90
16229;DHT22;8222;51.462;12.630;2023-07-20T04:48:13;19.70;99.90
16229;DHT22;8222;51.462;12.630;2023-07-20T04:50:45;19.70;99.90
16229;DHT22;8222;51.462;12.630;2023-07-20T04:53:12;19.70;99.90
16229;DHT22;8222;51.462;12.630;2023-07-20T04:55:39;19.60;99.90
16229;DHT22;8222;51.462;12.630;2023-07-20T04:58:05;19.70;99.90
16229;DHT22;8222;51.462;12.630;2023-07-20T05:00:37;19.60;99.90
16229;DHT22;8222;51.462;12.630;2023-07-20T05:03:03;19.50;99.90
16229;DHT22;8222;51.462;12.630;2023-07-20T05:05:30;19.50;99.90
16229;DHT22;8222;51.462;12.630;2023-07-20T05:07:57;19.60;99.90
16229;DHT22;8222;51.462;12.630;2023-07-20T05:10:24;19.90;99.90
16229;DHT22;8222;51.462;12.630;2023-07-20T05:12:49;20.00;99.90
16229;DHT22;8222;51.462;12.630;2023-07-20T05:15:15;19.90;99.90
16229;DHT22;8222;51.462;12.630;2023-07-20T05:17:43;20.10;99.90
16229;DHT22;8222;51.462;12.630;2023-07-20T05:20:16;20.10;99.90
16229;DHT22;8222;51.462;12.630;2023-07-20T05:22:42;20.20;99.90
16229;DHT22;8222;51.462;12.630;2023-07-20T05:25:11;20.20;99.90
16229;DHT22;8222;51.462;12.630;2023-07-20T05:27:38;20.20;99.90
16229;DHT22;8222;51.462;12.630;2023-07-20T05:30:04;20.30;99.90
16229;DHT22;8222;51.462;12.630;2023-07-20T05:32:33;20.50;99.90
16229;DHT22;8222;51.462;12.630;2023-07-20T05:34:59;20.50;99.90
16229;DHT22;8222;51.462;12.630;2023-07-20T05:37:25;20.50;99.90
16229;DHT22;8222;51.462;12.630;2023-07-20T05:39:50;20.40;99.90
16229;DHT22;8222;51.462;12.630;2023-07-20T05:42:16;20.30;99.90
16229;DHT22;8222;51.462;12.630;2023-07-20T05:44:42;20.30;99.90
16229;DHT22;8222;51.462;12.630;2023-07-20T05:47:10;20.40;99.90
16229;DHT22;8222;51.462;12.630;2023-07-20T05:49:36;20.60;99.90
16229;DHT22;8222;51.462;12.630;2023-07-20T05:52:03;20.70;99.90
16229;DHT22;8222;51.462;12.630;2023-07-20T05:54:32;20.80;99.90
16229;DHT22;8222;51.462;12.630;2023-07-20T05:56:57;20.80;99.90
16229;DHT22;8222;51.462;12.630;2023-07-20T05:59:30;20.60;99.90
16229;DHT22;8222;51.462;12.630;2023-07-20T06:01:55;20.30;99.90
16229;DHT22;8222;51.462;12.630;2023-07-20T06:04:23;19.90;99.90
16229;DHT22;8222;51.462;12.630;2023-07-20T06:06:49;19.80;99.90
16229;DHT22;8222;51.462;12.630;2023-07-20T06:09:15;19.90;99.90
16229;DHT22;8222;51.462;12.630;2023-07-20T06:11:45;20.10;99.90
16229;DHT22;8222;51.462;12.630;2023-07-20T06:14:15;20.20;99.90
16229;DHT22;8222;51.462;12.630;2023-07-20T06:16:46;20.40;99.90
16229;DHT22;8222;51.462;12.630;2023-07-20T06:19:16;20.50;99.90
16229;DHT22;8222;51.462;12.630;2023-07-20T06:21:42;20.90;99.90
16229;DHT22;8222;51.462;12.630;2023-07-20T06:24:07;20.70;99.90
16229;DHT22;8222;51.462;12.630;2023-07-20T06:26:33;20.60;99.90
16229;DHT22;8222;51.462;12.630;2023-07-20T06:29:06;20.60;99.90
16229;DHT22;8222;51.462;12.630;2023-07-20T06:31:35;20.50;99.90
16229;DHT22;8222;51.462;12.630;2023-07-20T06:34:02;20.70;99.90
16229;DHT22;8222;51.462;12.630;2023-07-20T06:36:28;20.60;99.90
16229;DHT22;8222;51.462;12.630;2023-07-20T06:38:54;20.60;99.90
16229;DHT22;8222;51.462;12.630;2023-07-20T06:41:22;20.70;99.90
16229;DHT22;8222;51.462;12.630;2023-07-20T06:43:52;20.70;99.90
16229;DHT22;8222;51.462;12.630;2023-07-20T06:46:24;20.60;99.90
16229;DHT22;8222;51.462;12.630;2023-07-20T06:48:49;20.40;99.90
16229;DHT22;8222;51.462;12.630;2023-07-20T06:51:15;20.60;99.90
16229;DHT22;8222;51.462;12.630;2023-07-20T06:53:44;20.60;99.90
16229;DHT22;8222;51.462;12.630;2023-07-20T06:56:14;20.30;99.90
16229;DHT22;8222;51.462;12.630;2023-07-20T06:58:42;20.20;99.90
16229;DHT22;8222;51.462;12.630;2023-07-20T07:01:10;20.20;99.90
16229;DHT22;8222;51.462;12.630;2023-07-20T07:03:38;20.10;99.90
16229;DHT22;8222;51.462;12.630;2023-07-20T07:06:03;20.10;99.90
16229;DHT22;8222;51.462;12.630;2023-07-20T07:08:31;20.30;99.90
16229;DHT22;8222;51.462;12.630;2023-07-20T07:10:57;20.50;99.90
16229;DHT22;8222;51.462;12.630;2023-07-20T07:13:23;20.60;99.90
16229;DHT22;8222;51.462;12.630;2023-07-20T07:15:49;20.70;99.90
16229;DHT22;8222;51.462;12.630;2023-07-20T07:18:14;20.90;99.90
16229;DHT22;8222;51.462;12.630;2023-07-20T07:20:40;21.30;99.90
16229;DHT22;8222;51.462;12.630;2023-07-20T07:23:06;22.00;99.90
16229;DHT22;8222;51.462;12.630;2023-07-20T07:25:31;22.30;99.90
16229;DHT22;8222;51.462;12.630;2023-07-20T07:27:57;22.10;99.90
16229;DHT22;8222;51.462;12.630;2023-07-20T07:30:25;22.00;99.90
16229;DHT22;8222;51.462;12.630;2023-07-20T07:32:51;21.80;99.90
16229;DHT22;8222;51.462;12.630;2023-07-20T07:35:17;21.90;99.90
16229;DHT22;8222;51.462;12.630;2023-07-20T07:37:45;22.20;99.90
16229;DHT22;8222;51.462;12.630;2023-07-20T07:40:14;22.30;99.90
16229;DHT22;8222;51.462;12.630;2023-07-20T07:42:43;21.90;99.90
16229;DHT22;8222;51.462;12.630;2023-07-20T07:45:09;22.00;99.90
16229;DHT22;8222;51.462;12.630;2023-07-20T07:47:35;22.30;99.90
16229;DHT22;8222;51.462;12.630;2023-07-20T07:50:03;22.60;99.90
16229;DHT22;8222;51.462;12.630;2023-07-20T07:52:29;22.60;99.90
16229;DHT22;8222;51.462;12.630;2023-07-20T07:54:57;22.70;99.90
16229;DHT22;8222;51.462;12.630;2023-07-20T07:57:23;22.70;99.90
16229;DHT22;8222;51.462;12.630;2023-07-20T07:59:51;22.60;99.90
16229;DHT22;8222;51.462;12.630;2023-07-20T08:02:19;22.50;99.90
16229;DHT22;8222;51.462;12.630;2023-07-20T08:04:46;22.40;99.90
16229;DHT22;8222;51.462;12.630;2023-07-20T08:07:21;22.30;99.90
16229;DHT22;8222;51.462;12.630;2023-07-20T08:09:46;22.40;99.90
16229;DHT22;8222;51.462;12.630;2023-07-20T08:12:12;22.10;99.90
16229;DHT22;8222;51.462;12.630;2023-07-20T08:14:38;22.10;99.90
16229;DHT22;8222;51.462;12.630;2023-07-20T08:17:04;22.30;99.90
16229;DHT22;8222;51.462;12.630;2023-07-20T08:19:30;22.30;99.90
16229;DHT22;8222;51.462;12.630;2023-07-20T08:21:55;22.10;99.90
16229;DHT22;8222;51.462;12.630;2023-07-20T08:24:21;21.40;99.90
16229;DHT22;8222;51.462;12.630;2023-07-20T08:26:49;21.10;99.90
16229;DHT22;8222;51.462;12.630;2023-07-20T08:29:15;21.00;99.90
16229;DHT22;8222;51.462;12.630;2023-07-20T08:31:44;20.90;99.90
16229;DHT22;8222;51.462;12.630;2023-07-20T08:34:09;20.80;99.90
16229;DHT22;8222;51.462;12.630;2023-07-20T08:36:35;21.10;99.90
16229;DHT22;8222;51.462;12.630;2023-07-20T08:39:04;21.10;99.90
16229;DHT22;8222;51.462;12.630;2023-07-20T08:41:32;21.60;99.90
16229;DHT22;8222;51.462;12.630;2023-07-20T08:43:58;21.80;99.90
16229;DHT22;8222;51.462;12.630;2023-07-20T08:46:28;22.10;99.90
16229;DHT22;8222;51.462;12.630;2023-07-20T08:48:55;22.20;99.90
16229;DHT22;8222;51.462;12.630;2023-07-20T08:51:21;22.10;99.90
16229;DHT22;8222;51.462;12.630;2023-07-20T08:53:50;22.30;99.90
16229;DHT22;8222;51.462;12.630;2023-07-20T08:56:20;23.00;99.90
16229;DHT22;8222;51.462;12.630;2023-07-20T08:58:47;23.50;99.90
16229;DHT22;8222;51.462;12.630;2023-07-20T09:01:13;23.60;99.90
16229;DHT22;8222;51.462;12.630;2023-07-20T09:03:40;23.70;99.90
16229;DHT22;8222;51.462;12.630;2023-07-20T09:06:08;23.30;99.90
16229;DHT22;8222;51.462;12.630;2023-07-20T09:08:38;23.20;99.90
16229;DHT22;8222;51.462;12.630;2023-07-20T09:11:04;23.10;99.90
16229;DHT22;8222;51.462;12.630;2023-07-20T09:13:32;23.10;99.90
16229;DHT22;8222;51.462;12.630;2023-07-20T09:16:00;22.90;99.90
16229;DHT22;8222;51.462;12.630;2023-07-20T09:18:27;22.70;99.90
16229;DHT22;8222;51.462;12.630;2023-07-20T09:21:03;23.10;99.90
16229;DHT22;8222;51.462;12.630;2023-07-20T09:23:36;23.50;99.90
16229;DHT22;8222;51.462;12.630;2023-07-20T09:26:14;24.40;99.90
16229;DHT22;8222;51.462;12.630;2023-07-20T09:28:59;24.60;99.90
16229;DHT22;8222;51.462;12.630;2023-07-20T09:31:24;25.00;99.90
16229;DHT22;8222;51.462;12.630;2023-07-20T09:33:55;25.60;99.90
16229;DHT22;8222;51.462;12.630;2023-07-20T09:36:26;25.60;99.90
16229;DHT22;8222;51.462;12.630;2023-07-20T09:38:52;25.20;99.90
16229;DHT22;8222;51.462;12.630;2023-07-20T09:41:19;25.30;99.90
16229;DHT22;8222;51.462;12.630;2023-07-20T09:43:45;24.60;99.90
16229;DHT22;8222;51.462;12.630;2023-07-20T09:46:11;24.50;99.90
16229;DHT22;8222;51.462;12.630;2023-07-20T09:48:37;24.20;99.90
16229;DHT22;8222;51.462;12.630;2023-07-20T09:51:07;23.50;99.90
16229;DHT22;8222;51.462;12.630;2023-07-20T09:53:33;23.10;99.90
16229;DHT22;8222;51.462;12.630;2023-07-20T09:55:59;22.70;99.90
16229;DHT22;8222;51.462;12.630;2023-07-20T09:58:32;22.20;99.90
16229;DHT22;8222;51.462;12.630;2023-07-20T10:01:04;21.90;99.90
16229;DHT22;8222;51.462;12.630;2023-07-20T10:03:34;21.60;99.90
16229;DHT22;8222;51.462;12.630;2023-07-20T10:06:07;21.30;99.90
16229;DHT22;8222;51.462;12.630;2023-07-20T10:08:36;21.20;99.90
16229;DHT22;8222;51.462;12.630;2023-07-20T10:11:10;20.90;99.90
16229;DHT22;8222;51.462;12.630;2023-07-20T10:13:38;20.50;99.90
16229;DHT22;8222;51.462;12.630;2023-07-20T10:16:11;20.20;99.90
16229;DHT22;8222;51.462;12.630;2023-07-20T10:21:23;20.10;99.90
16229;DHT22;8222;51.462;12.630;2023-07-20T10:23:50;20.10;99.90
16229;DHT22;8222;51.462;12.630;2023-07-20T10:26:17;20.10;99.90
16229;DHT22;8222;51.462;12.630;2023-07-20T10:28:43;19.90;99.90
16229;DHT22;8222;51.462;12.630;2023-07-20T10:31:12;19.80;99.90
16229;DHT22;8222;51.462;12.630;2023-07-20T10:33:39;20.00;99.90
16229;DHT22;8222;51.462;12.630;2023-07-20T10:36:05;20.00;99.90
16229;DHT22;8222;51.462;12.630;2023-07-20T10:41:20;20.30;99.90
16229;DHT22;8222;51.462;12.630;2023-07-20T10:43:47;20.50;99.90
16229;DHT22;8222;51.462;12.630;2023-07-20T10:46:14;20.70;99.90
16229;DHT22;8222;51.462;12.630;2023-07-20T10:48:59;20.90;99.90
16229;DHT22;8222;51.462;12.630;2023-07-20T10:51:25;21.30;99.90
16229;DHT22;8222;51.462;12.630;2023-07-20T10:53:51;21.70;99.90
16229;DHT22;8222;51.462;12.630;2023-07-20T10:56:21;22.00;99.90
16229;DHT22;8222;51.462;12.630;2023-07-20T10:58:49;22.30;99.90
16229;DHT22;8222;51.462;12.630;2023-07-20T11:01:18;22.40;99.90
16229;DHT22;8222;51.462;12.630;2023-07-20T11:03:49;22.60;99.90
16229;DHT22;8222;51.462;12.630;2023-07-20T11:08:56;23.10;99.90
16229;DHT22;8222;51.462;12.630;2023-07-20T11:11:29;23.10;99.90
16229;DHT22;8222;51.462;12.630;2023-07-20T11:14:00;23.20;99.90
16229;DHT22;8222;51.462;12.630;2023-07-20T11:16:41;23.30;99.90
16229;DHT22;8222;51.462;12.630;2023-07-20T11:19:17;23.50;99.90
16229;DHT22;8222;51.462;12.630;2023-07-20T11:21:44;23.60;99.90
16229;DHT22;8222;51.462;12.630;2023-07-20T11:24:10;23.50;99.90
16229;DHT22;8222;51.462;12.630;2023-07-20T11:26:49;23.80;99.90
16229;DHT22;8222;51.462;12.630;2023-07-20T11:29:17;23.90;99.90
16229;DHT22;8222;51.462;12.630;2023-07-20T11:31:44;23.90;99.90
16229;DHT22;8222;51.462;12.630;2023-07-20T11:34:14;24.00;99.90
16229;DHT22;8222;51.462;12.630;2023-07-20T11:36:44;24.20;99.90
16229;DHT22;8222;51.462;12.630;2023-07-20T11:39:13;24.10;99.90
16229;DHT22;8222;51.462;12.630;2023-07-20T11:41:43;23.90;99.90
16229;DHT22;8222;51.462;12.630;2023-07-20T11:44:11;24.00;99.90
16229;DHT22;8222;51.462;12.630;2023-07-20T11:46:39;24.20;99.90
16229;DHT22;8222;51.462;12.630;2023-07-20T11:49:05;24.10;99.90
16229;DHT22;8222;51.462;12.630;2023-07-20T11:51:32;24.20;99.90
16229;DHT22;8222;51.462;12.630;2023-07-20T11:54:06;24.10;99.90
16229;DHT22;8222;51.462;12.630;2023-07-20T11:56:32;24.00;99.90
16229;DHT22;8222;51.462;12.630;2023-07-20T11:59:01;23.90;99.90
16229;DHT22;8222;51.462;12.630;2023-07-20T12:01:30;24.00;99.90
16229;DHT22;8222;51.462;12.630;2023-07-20T12:04:02;24.00;99.90
16229;DHT22;8222;51.462;12.630;2023-07-20T12:06:30;24.20;99.90
16229;DHT22;8222;51.462;12.630;2023-07-20T12:08:59;24.20;99.90
16229;DHT22;8222;51.462;12.630;2023-07-20T12:11:38;24.60;99.90
16229;DHT22;8222;51.462;12.630;2023-07-20T12:14:07;24.70;99.90
16229;DHT22;8222;51.462;12.630;2023-07-20T12:16:37;24.70;99.90
16229;DHT22;8222;51.462;12.630;2023-07-20T12:19:09;24.40;99.90
16229;DHT22;8222;51.462;12.630;2023-07-20T12:21:36;24.30;99.90
16229;DHT22;8222;51.462;12.630;2023-07-20T12:24:03;23.80;99.90
16229;DHT22;8222;51.462;12.630;2023-07-20T12:26:32;23.60;99.90
16229;DHT22;8222;51.462;12.630;2023-07-20T12:28:58;23.60;99.90
16229;DHT22;8222;51.462;12.630;2023-07-20T12:31:27;23.50;99.90
16229;DHT22;8222;51.462;12.630;2023-07-20T12:33:56;23.70;99.90
16229;DHT22;8222;51.462;12.630;2023-07-20T12:36:26;23.80;99.90
16229;DHT22;8222;51.462;12.630;2023-07-20T12:38:52;24.20;99.90
16229;DHT22;8222;51.462;12.630;2023-07-20T12:41:17;24.30;99.90
16229;DHT22;8222;51.462;12.630;2023-07-20T12:43:46;24.30;99.90
16229;DHT22;8222;51.462;12.630;2023-07-20T12:46:15;24.30;99.90
16229;DHT22;8222;51.462;12.630;2023-07-20T12:48:41;24.60;99.90
16229;DHT22;8222;51.462;12.630;2023-07-20T12:51:08;24.60;99.90
16229;DHT22;8222;51.462;12.630;2023-07-20T12:53:34;24.40;99.90
16229;DHT22;8222;51.462;12.630;2023-07-20T12:56:03;24.30;99.90
16229;DHT22;8222;51.462;12.630;2023-07-20T12:58:31;24.10;99.90
16229;DHT22;8222;51.462;12.630;2023-07-20T13:01:00;24.00;99.90
16229;DHT22;8222;51.462;12.630;2023-07-20T13:03:28;23.90;99.90
16229;DHT22;8222;51.462;12.630;2023-07-20T13:05:57;23.80;99.90
16229;DHT22;8222;51.462;12.630;2023-07-20T13:08:25;23.90;99.90
16229;DHT22;8222;51.462;12.630;2023-07-20T13:10:52;24.00;99.90
16229;DHT22;8222;51.462;12.630;2023-07-20T13:13:18;24.00;99.90
16229;DHT22;8222;51.462;12.630;2023-07-20T13:15:45;24.00;99.90
16229;DHT22;8222;51.462;12.630;2023-07-20T13:18:11;23.70;99.90
16229;DHT22;8222;51.462;12.630;2023-07-20T13:20:37;23.70;99.90
16229;DHT22;8222;51.462;12.630;2023-07-20T13:23:05;23.30;99.90
16229;DHT22;8222;51.462;12.630;2023-07-20T13:25:31;23.10;99.90
16229;DHT22;8222;51.462;12.630;2023-07-20T13:27:59;23.00;99.90
16229;DHT22;8222;51.462;12.630;2023-07-20T13:30:27;23.00;99.90
16229;DHT22;8222;51.462;12.630;2023-07-20T13:32:52;22.80;99.90
16229;DHT22;8222;51.462;12.630;2023-07-20T13:35:18;22.90;99.90
16229;DHT22;8222;51.462;12.630;2023-07-20T13:37:46;22.70;99.90
16229;DHT22;8222;51.462;12.630;2023-07-20T13:40:12;22.70;99.90
16229;DHT22;8222;51.462;12.630;2023-07-20T13:42:39;22.70;99.90
16229;DHT22;8222;51.462;12.630;2023-07-20T13:45:08;22.80;99.90
16229;DHT22;8222;51.462;12.630;2023-07-20T13:47:33;23.00;99.90
16229;DHT22;8222;51.462;12.630;2023-07-20T13:50:01;22.90;99.90
16229;DHT22;8222;51.462;12.630;2023-07-20T13:52:27;22.90;99.90
16229;DHT22;8222;51.462;12.630;2023-07-20T13:54:53;23.10;99.90
16229;DHT22;8222;51.462;12.630;2023-07-20T13:57:18;23.60;99.90
16229;DHT22;8222;51.462;12.630;2023-07-20T13:59:44;24.00;99.90
16229;DHT22;8222;51.462;12.630;2023-07-20T14:02:10;24.20;99.90
16229;DHT22;8222;51.462;12.630;2023-07-20T14:04:36;24.60;99.90
16229;DHT22;8222;51.462;12.630;2023-07-20T14:07:04;24.70;99.90
16229;DHT22;8222;51.462;12.630;2023-07-20T14:09:30;25.10;99.90
16229;DHT22;8222;51.462;12.630;2023-07-20T14:11:55;25.20;99.90
16229;DHT22;8222;51.462;12.630;2023-07-20T14:14:21;25.30;99.90
16229;DHT22;8222;51.462;12.630;2023-07-20T14:16:47;25.10;99.90
16229;DHT22;8222;51.462;12.630;2023-07-20T14:19:13;25.10;99.90
16229;DHT22;8222;51.462;12.630;2023-07-20T14:21:41;25.10;99.90
16229;DHT22;8222;51.462;12.630;2023-07-20T14:24:07;24.90;99.90
16229;DHT22;8222;51.462;12.630;2023-07-20T14:26:35;24.90;99.90
16229;DHT22;8222;51.462;12.630;2023-07-20T14:29:00;24.60;99.90
16229;DHT22;8222;51.462;12.630;2023-07-20T14:31:29;24.60;99.90
16229;DHT22;8222;51.462;12.630;2023-07-20T14:33:55;24.70;99.90
16229;DHT22;8222;51.462;12.630;2023-07-20T14:36:23;25.20;99.90
16229;DHT22;8222;51.462;12.630;2023-07-20T14:38:49;25.20;99.90
16229;DHT22;8222;51.462;12.630;2023-07-20T14:41:17;25.20;99.90
16229;DHT22;8222;51.462;12.630;2023-07-20T14:43:45;25.10;99.90
16229;DHT22;8222;51.462;12.630;2023-07-20T14:46:11;25.20;99.90
16229;DHT22;8222;51.462;12.630;2023-07-20T14:48:39;25.40;99.90
16229;DHT22;8222;51.462;12.630;2023-07-20T14:51:05;25.30;98.60
16229;DHT22;8222;51.462;12.630;2023-07-20T14:53:33;25.20;97.10
16229;DHT22;8222;51.462;12.630;2023-07-20T14:56:02;24.90;98.80
16229;DHT22;8222;51.462;12.630;2023-07-20T14:58:27;24.80;99.90
16229;DHT22;8222;51.462;12.630;2023-07-20T15:00:53;24.90;99.70
16229;DHT22;8222;51.462;12.630;2023-07-20T15:03:21;24.80;98.20
16229;DHT22;8222;51.462;12.630;2023-07-20T15:05:47;24.90;98.70
16229;DHT22;8222;51.462;12.630;2023-07-20T15:08:17;25.10;99.30
16229;DHT22;8222;51.462;12.630;2023-07-20T15:10:47;25.40;99.80
16229;DHT22;8222;51.462;12.630;2023-07-20T15:13:13;25.60;93.50
16229;DHT22;8222;51.462;12.630;2023-07-20T15:15:39;25.40;96.50
16229;DHT22;8222;51.462;12.630;2023-07-20T15:18:09;25.80;95.00
16229;DHT22;8222;51.462;12.630;2023-07-20T15:20:34;26.10;93.90
16229;DHT22;8222;51.462;12.630;2023-07-20T15:23:05;26.20;90.70
16229;DHT22;8222;51.462;12.630;2023-07-20T15:25:33;26.50;86.40
16229;DHT22;8222;51.462;12.630;2023-07-20T15:27:58;26.80;86.70
16229;DHT22;8222;51.462;12.630;2023-07-20T15:30:24;26.30;87.30
16229;DHT22;8222;51.462;12.630;2023-07-20T15:32:52;26.70;87.50
16229;DHT22;8222;51.462;12.630;2023-07-20T15:35:23;26.50;86.10
16229;DHT22;8222;51.462;12.630;2023-07-20T15:37:51;26.60;89.70
16229;DHT22;8222;51.462;12.630;2023-07-20T15:40:17;27.00;88.00
16229;DHT22;8222;51.462;12.630;2023-07-20T15:42:43;27.40;88.10
16229;DHT22;8222;51.462;12.630;2023-07-20T15:45:09;27.90;78.10
16229;DHT22;8222;51.462;12.630;2023-07-20T15:47:35;28.40;73.70
16229;DHT22;8222;51.462;12.630;2023-07-20T15:50:03;28.50;69.40
16229;DHT22;8222;51.462;12.630;2023-07-20T15:52:29;28.30;65.90
16229;DHT22;8222;51.462;12.630;2023-07-20T15:54:57;28.40;63.40